Accueil
METAR-TAF:

METAR-TAF

Aéroports :

Aéroport international de Curaçao

Curaçao, Antilles néerlandaises

latitude: 12-12N, longitude: 068-58W, altitude: 9 m

Observation

Le bulletin a été fait il y a 36 minutes, à 05:00 UTC
Vent 9 kt de est/sud-est
Température 26°C
Humidité 79%
Pression 1013 hPa
Visibilité 10 km ou plus
Nuages fragmentés à une hauteur de 1700 ft

METAR: TNCC 160500Z AUTO 12009KT 9999 BKN017 26/22 Q1013 NOSIG

Heure: 01:36 (05:36 UTC)

Prévision

Le bulletin a été fait il y a 8 heures et 16 minutes, à 21:20 UTC
Prévision valable du 16 à 00 UTC au 16 à 24 UTC
Vent 13 kt de est
Visibilité 10 km ou plus
Nuages épars à une hauteur de 1800 ft
Evoluant progressivement
du 16 à 11 UTC au 16 à 13 UTC
Vent 15 kt de est/sud-est avec des rafales jusqu'à 26 kt

TAF: TNCC 152120Z 1600/1624 09013KT 9999 SCT018 BECMG 1611/1613 12015G26KT

Observations et prévisions météorologiques de plus de 4000 aéroports (messages METAR et TAF).

Les stations disponibles sont représentées par des disques jaunes et rouges sur la carte.

Passer la souris dessus pour voir le nom de la station.

Cliquer dessus pour voir les observations et prévisions météorologiques.

Pour changer de carte: cliquez sur les boutons verts avec une croix noire pour zoomer, sur le bouton vert avec un tiret pour effectuer un zoom arrière, ou sur les flèches vertes pour les cartes adjacentes.


METAR-TAF: